createdAt,value
2022-08-18T00:01:11.328Z,4.80
2022-08-18T00:06:16.030Z,4.40
2022-08-18T00:11:17.705Z,4.28
2022-08-18T00:16:19.342Z,4.40
2022-08-18T00:21:21.015Z,4.53
2022-08-18T00:26:22.625Z,4.43
2022-08-18T00:31:24.679Z,5.00
2022-08-18T00:36:27.165Z,4.70
2022-08-18T00:41:30.056Z,4.47
2022-08-18T00:46:34.086Z,6.07
2022-08-18T00:51:37.091Z,6.32
2022-08-18T00:56:45.346Z,5.78
2022-08-18T01:01:50.054Z,6.03
2022-08-18T01:07:11.393Z,5.90
2022-08-18T01:12:45.009Z,5.75
2022-08-18T01:17:53.861Z,5.70
2022-08-18T01:23:13.066Z,5.15
2022-08-18T01:28:18.459Z,5.10
2022-08-18T01:33:20.174Z,5.35
2022-08-18T01:38:22.867Z,5.28
2022-08-18T01:43:25.053Z,5.55
2022-08-18T01:48:28.447Z,5.43
2022-08-18T01:53:30.234Z,6.07
2022-08-18T01:58:36.340Z,6.13
2022-08-18T02:03:42.995Z,5.65
2022-08-18T02:08:45.922Z,5.57
2022-08-18T02:13:55.051Z,5.80
2022-08-18T02:18:56.928Z,5.50
2022-08-18T02:23:58.719Z,5.95
2022-08-18T02:29:07.670Z,5.10
2022-08-18T02:34:36.467Z,6.45
2022-08-18T02:39:38.325Z,6.38
2022-08-18T02:44:40.332Z,6.35
2022-08-18T02:49:42.046Z,7.25
2022-08-18T02:54:43.870Z,6.68
2022-08-18T02:59:47.479Z,7.00
2022-08-18T03:04:51.406Z,7.55
2022-08-18T03:09:53.085Z,6.82
2022-08-18T03:14:55.126Z,6.57
2022-08-18T03:19:57.766Z,6.82
2022-08-18T03:24:59.547Z,6.78
2022-08-18T03:30:02.761Z,6.47
2022-08-18T03:35:04.825Z,6.50
2022-08-18T03:40:07.407Z,6.65
2022-08-18T03:45:12.658Z,6.18
2022-08-18T03:50:19.879Z,6.82
2022-08-18T03:55:21.736Z,7.32
2022-08-18T04:00:23.751Z,6.03
2022-08-18T04:05:26.860Z,5.65
2022-08-18T04:10:28.629Z,6.45
2022-08-18T04:15:30.310Z,6.70
2022-08-18T04:20:35.380Z,6.45
2022-08-18T04:25:37.086Z,6.68
2022-08-18T04:30:38.643Z,6.57
2022-08-18T04:35:40.365Z,6.53
2022-08-18T04:40:42.546Z,6.85
2022-08-18T04:45:45.970Z,6.90
2022-08-18T04:50:48.604Z,6.57
2022-08-18T04:55:52.097Z,6.47
2022-08-18T05:01:01.051Z,6.03
2022-08-18T05:06:04.840Z,7.10
2022-08-18T05:11:06.943Z,5.20
2022-08-18T05:16:18.039Z,5.07
2022-08-18T05:21:22.477Z,4.78
2022-08-18T05:26:26.817Z,3.20
2022-08-18T05:31:29.635Z,3.50
2022-08-18T05:36:52.074Z,2.47
2022-08-18T05:42:12.576Z,2.40
2022-08-18T05:47:16.649Z,2.90
2022-08-18T05:52:26.282Z,2.90
2022-08-18T05:57:33.567Z,3.13
2022-08-18T06:02:38.655Z,3.40
2022-08-18T06:07:51.240Z,2.80
2022-08-18T06:12:57.559Z,3.47
2022-08-18T06:18:02.274Z,3.85
2022-08-18T06:23:29.381Z,3.30
2022-08-18T06:29:00.922Z,3.90
2022-08-18T06:34:23.584Z,3.97
2022-08-18T06:39:39.371Z,4.45
2022-08-18T06:44:46.915Z,4.60
2022-08-18T06:50:18.760Z,3.90
2022-08-18T06:55:45.940Z,4.28
2022-08-18T07:00:50.806Z,4.38
2022-08-18T07:06:03.944Z,3.92
2022-08-18T07:11:17.757Z,3.30
2022-08-18T07:16:40.278Z,1.80
2022-08-18T07:21:44.934Z,1.75
2022-08-18T07:27:07.405Z,1.83
2022-08-18T07:32:21.813Z,1.83
2022-08-18T07:37:50.423Z,1.95
2022-08-18T07:43:23.985Z,1.60
2022-08-18T07:48:39.928Z,1.75
2022-08-18T07:54:05.315Z,1.60
2022-08-18T07:59:39.113Z,1.48
2022-08-18T08:04:56.882Z,1.88
2022-08-18T08:10:23.917Z,2.05
2022-08-18T08:15:49.577Z,1.73
2022-08-18T08:20:58.187Z,1.60
2022-08-18T08:26:12.021Z,1.90
2022-08-18T08:31:38.013Z,1.63
2022-08-18T08:36:42.062Z,1.70
2022-08-18T08:42:30.919Z,2.10
2022-08-18T08:48:06.646Z,1.83
2022-08-18T08:53:25.756Z,1.98
2022-08-18T08:58:40.545Z,2.20
2022-08-18T09:03:49.137Z,2.17
2022-08-18T09:09:07.902Z,2.10
2022-08-18T09:14:46.571Z,2.30
2022-08-18T09:20:09.363Z,1.85
2022-08-18T09:25:32.887Z,2.40
2022-08-18T09:30:45.176Z,2.08
2022-08-18T10:48:40.322Z,3.95
2022-08-18T10:53:58.551Z,3.70
2022-08-18T11:12:57.856Z,2.50
2022-08-18T11:31:10.845Z,2.47
2022-08-18T11:36:16.299Z,2.47
2022-08-18T11:41:24.328Z,2.70
2022-08-18T11:47:03.547Z,2.58
2022-08-18T11:52:28.978Z,2.40
2022-08-18T11:58:33.290Z,2.15
2022-08-18T12:03:44.598Z,2.53
2022-08-18T12:08:58.633Z,2.33
2022-08-18T12:14:30.661Z,2.55
2022-08-18T12:19:36.119Z,2.78
2022-08-18T12:24:40.388Z,2.50
2022-08-18T12:29:43.568Z,3.22
2022-08-18T12:34:46.934Z,3.00
